sensor_id;sensor_type;location;lat;lon;timestamp;temperature;humidity
5466;DHT22;2755;50.728;7.108;2022-10-16T00:01:08;14.10;99.90
5466;DHT22;2755;50.728;7.108;2022-10-16T00:03:36;14.50;99.90
5466;DHT22;2755;50.728;7.108;2022-10-16T00:06:02;14.20;99.90
5466;DHT22;2755;50.728;7.108;2022-10-16T00:08:28;14.70;99.90
5466;DHT22;2755;50.728;7.108;2022-10-16T00:11:06;14.40;99.90
5466;DHT22;2755;50.728;7.108;2022-10-16T00:13:34;14.70;99.90
5466;DHT22;2755;50.728;7.108;2022-10-16T00:16:00;14.30;99.90
5466;DHT22;2755;50.728;7.108;2022-10-16T00:18:27;14.40;99.90
5466;DHT22;2755;50.728;7.108;2022-10-16T00:23:19;14.70;99.90
5466;DHT22;2755;50.728;7.108;2022-10-16T00:25:57;14.20;99.90
5466;DHT22;2755;50.728;7.108;2022-10-16T00:28:23;14.10;99.90
5466;DHT22;2755;50.728;7.108;2022-10-16T00:30:49;14.10;99.90
5466;DHT22;2755;50.728;7.108;2022-10-16T00:33:15;14.20;99.90
5466;DHT22;2755;50.728;7.108;2022-10-16T00:35:40;14.10;99.90
5466;DHT22;2755;50.728;7.108;2022-10-16T00:38:06;14.00;99.90
5466;DHT22;2755;50.728;7.108;2022-10-16T00:40:31;13.30;99.90
5466;DHT22;2755;50.728;7.108;2022-10-16T00:42:57;14.00;99.90
5466;DHT22;2755;50.728;7.108;2022-10-16T00:45:23;13.70;99.90
5466;DHT22;2755;50.728;7.108;2022-10-16T00:50:28;13.60;99.90
5466;DHT22;2755;50.728;7.108;2022-10-16T00:52:55;14.00;99.90
5466;DHT22;2755;50.728;7.108;2022-10-16T00:57:48;14.10;99.90
5466;DHT22;2755;50.728;7.108;2022-10-16T01:00:19;13.70;99.90
5466;DHT22;2755;50.728;7.108;2022-10-16T01:02:51;13.50;99.90
5466;DHT22;2755;50.728;7.108;2022-10-16T01:05:16;13.50;99.90
5466;DHT22;2755;50.728;7.108;2022-10-16T01:08:00;13.90;99.90
5466;DHT22;2755;50.728;7.108;2022-10-16T01:10:43;13.60;99.90
5466;DHT22;2755;50.728;7.108;2022-10-16T01:13:21;13.50;99.90
5466;DHT22;2755;50.728;7.108;2022-10-16T01:15:56;13.40;99.90
5466;DHT22;2755;50.728;7.108;2022-10-16T01:18:46;13.60;99.90
5466;DHT22;2755;50.728;7.108;2022-10-16T01:21:18;12.60;99.90
5466;DHT22;2755;50.728;7.108;2022-10-16T01:27:24;13.70;99.90
5466;DHT22;2755;50.728;7.108;2022-10-16T01:30:10;13.50;99.90
5466;DHT22;2755;50.728;7.108;2022-10-16T01:32:37;12.80;99.90
5466;DHT22;2755;50.728;7.108;2022-10-16T01:35:27;13.50;99.90
5466;DHT22;2755;50.728;7.108;2022-10-16T01:40:45;13.40;99.90
5466;DHT22;2755;50.728;7.108;2022-10-16T01:43:20;13.20;99.90
5466;DHT22;2755;50.728;7.108;2022-10-16T01:45:47;12.80;99.90
5466;DHT22;2755;50.728;7.108;2022-10-16T01:48:16;13.30;99.90
5466;DHT22;2755;50.728;7.108;2022-10-16T01:50:44;13.20;99.90
5466;DHT22;2755;50.728;7.108;2022-10-16T01:53:16;13.10;99.90
5466;DHT22;2755;50.728;7.108;2022-10-16T01:55:44;13.20;99.90
5466;DHT22;2755;50.728;7.108;2022-10-16T01:58:13;13.10;99.90
5466;DHT22;2755;50.728;7.108;2022-10-16T02:00:42;13.10;99.90
5466;DHT22;2755;50.728;7.108;2022-10-16T02:03:10;13.20;99.90
5466;DHT22;2755;50.728;7.108;2022-10-16T02:05:41;13.00;99.90
5466;DHT22;2755;50.728;7.108;2022-10-16T02:08:08;13.20;99.90
5466;DHT22;2755;50.728;7.108;2022-10-16T02:10:35;13.20;99.90
5466;DHT22;2755;50.728;7.108;2022-10-16T02:13:07;13.30;99.90
5466;DHT22;2755;50.728;7.108;2022-10-16T02:18:04;13.60;99.90
5466;DHT22;2755;50.728;7.108;2022-10-16T02:20:34;13.90;99.90
5466;DHT22;2755;50.728;7.108;2022-10-16T02:23:01;14.20;99.90
5466;DHT22;2755;50.728;7.108;2022-10-16T02:25:32;14.20;99.90
5466;DHT22;2755;50.728;7.108;2022-10-16T02:35:41;14.10;99.90
5466;DHT22;2755;50.728;7.108;2022-10-16T02:38:09;13.80;99.90
5466;DHT22;2755;50.728;7.108;2022-10-16T02:40:35;14.30;99.90
5466;DHT22;2755;50.728;7.108;2022-10-16T02:43:04;14.10;99.90
5466;DHT22;2755;50.728;7.108;2022-10-16T02:45:30;13.60;99.90
5466;DHT22;2755;50.728;7.108;2022-10-16T02:47:59;14.10;99.90
5466;DHT22;2755;50.728;7.108;2022-10-16T02:50:24;13.90;99.90
5466;DHT22;2755;50.728;7.108;2022-10-16T02:52:50;14.00;99.90
5466;DHT22;2755;50.728;7.108;2022-10-16T02:55:16;13.90;99.90
5466;DHT22;2755;50.728;7.108;2022-10-16T02:57:42;14.00;99.90
5466;DHT22;2755;50.728;7.108;2022-10-16T03:00:10;13.80;99.90
5466;DHT22;2755;50.728;7.108;2022-10-16T03:02:37;14.20;99.90
5466;DHT22;2755;50.728;7.108;2022-10-16T03:05:03;14.20;99.90
5466;DHT22;2755;50.728;7.108;2022-10-16T03:07:29;13.70;99.90
5466;DHT22;2755;50.728;7.108;2022-10-16T03:09:54;13.60;99.90
5466;DHT22;2755;50.728;7.108;2022-10-16T03:14:47;14.10;99.90
5466;DHT22;2755;50.728;7.108;2022-10-16T03:17:12;14.00;99.90
5466;DHT22;2755;50.728;7.108;2022-10-16T03:19:38;14.00;99.90
5466;DHT22;2755;50.728;7.108;2022-10-16T03:22:06;14.40;99.90
5466;DHT22;2755;50.728;7.108;2022-10-16T03:24:32;13.90;99.90
5466;DHT22;2755;50.728;7.108;2022-10-16T03:31:51;14.30;99.90
5466;DHT22;2755;50.728;7.108;2022-10-16T03:34:17;14.10;99.90
5466;DHT22;2755;50.728;7.108;2022-10-16T03:36:42;13.80;99.90
5466;DHT22;2755;50.728;7.108;2022-10-16T03:39:08;13.90;99.90
5466;DHT22;2755;50.728;7.108;2022-10-16T03:41:33;14.00;99.90
5466;DHT22;2755;50.728;7.108;2022-10-16T03:43:59;13.90;99.90
5466;DHT22;2755;50.728;7.108;2022-10-16T03:46:24;13.90;99.90
5466;DHT22;2755;50.728;7.108;2022-10-16T03:48:50;14.40;99.90
5466;DHT22;2755;50.728;7.108;2022-10-16T03:51:16;14.30;99.90
5466;DHT22;2755;50.728;7.108;2022-10-16T03:53:41;14.40;99.90
5466;DHT22;2755;50.728;7.108;2022-10-16T03:56:07;14.40;99.90
5466;DHT22;2755;50.728;7.108;2022-10-16T03:58:32;14.00;99.90
5466;DHT22;2755;50.728;7.108;2022-10-16T04:00:58;14.40;99.90
5466;DHT22;2755;50.728;7.108;2022-10-16T04:05:50;14.40;99.90
5466;DHT22;2755;50.728;7.108;2022-10-16T04:08:16;14.20;99.90
5466;DHT22;2755;50.728;7.108;2022-10-16T04:10:44;14.40;99.90
5466;DHT22;2755;50.728;7.108;2022-10-16T04:13:11;14.40;99.90
5466;DHT22;2755;50.728;7.108;2022-10-16T04:15:36;14.00;99.90
5466;DHT22;2755;50.728;7.108;2022-10-16T04:18:03;14.00;99.90
5466;DHT22;2755;50.728;7.108;2022-10-16T04:22:55;14.20;99.90
5466;DHT22;2755;50.728;7.108;2022-10-16T04:25:21;14.10;99.90
5466;DHT22;2755;50.728;7.108;2022-10-16T04:27:47;14.20;99.90
5466;DHT22;2755;50.728;7.108;2022-10-16T04:30:13;13.70;99.90
5466;DHT22;2755;50.728;7.108;2022-10-16T04:47:14;14.20;99.90
5466;DHT22;2755;50.728;7.108;2022-10-16T04:49:40;14.00;99.90
5466;DHT22;2755;50.728;7.108;2022-10-16T04:54:32;13.90;99.90
5466;DHT22;2755;50.728;7.108;2022-10-16T04:56:57;14.90;99.90
5466;DHT22;2755;50.728;7.108;2022-10-16T04:59:23;13.30;99.90
5466;DHT22;2755;50.728;7.108;2022-10-16T05:01:49;14.10;99.90
5466;DHT22;2755;50.728;7.108;2022-10-16T05:04:14;14.40;99.90
5466;DHT22;2755;50.728;7.108;2022-10-16T05:06:41;13.90;99.90
5466;DHT22;2755;50.728;7.108;2022-10-16T05:09:07;14.00;99.90
5466;DHT22;2755;50.728;7.108;2022-10-16T05:11:34;14.30;99.90
5466;DHT22;2755;50.728;7.108;2022-10-16T05:14:00;14.00;99.90
5466;DHT22;2755;50.728;7.108;2022-10-16T05:16:26;14.20;99.90
5466;DHT22;2755;50.728;7.108;2022-10-16T05:18:52;14.10;99.90
5466;DHT22;2755;50.728;7.108;2022-10-16T05:21:18;13.90;99.90
5466;DHT22;2755;50.728;7.108;2022-10-16T05:23:43;14.00;99.90
5466;DHT22;2755;50.728;7.108;2022-10-16T05:26:09;13.60;99.90
5466;DHT22;2755;50.728;7.108;2022-10-16T05:28:35;13.80;99.90
5466;DHT22;2755;50.728;7.108;2022-10-16T05:31:08;14.00;99.90
5466;DHT22;2755;50.728;7.108;2022-10-16T05:33:34;14.10;99.90
5466;DHT22;2755;50.728;7.108;2022-10-16T05:36:04;14.30;99.90
5466;DHT22;2755;50.728;7.108;2022-10-16T05:38:30;13.40;99.90
5466;DHT22;2755;50.728;7.108;2022-10-16T05:45:58;14.30;99.90
5466;DHT22;2755;50.728;7.108;2022-10-16T05:48:24;13.90;99.90
5466;DHT22;2755;50.728;7.108;2022-10-16T05:51:20;14.00;99.90
5466;DHT22;2755;50.728;7.108;2022-10-16T05:53:45;14.20;99.90
5466;DHT22;2755;50.728;7.108;2022-10-16T05:56:11;13.90;99.90
5466;DHT22;2755;50.728;7.108;2022-10-16T05:58:38;14.40;99.90
5466;DHT22;2755;50.728;7.108;2022-10-16T06:01:13;14.90;99.90
5466;DHT22;2755;50.728;7.108;2022-10-16T06:03:39;14.30;99.90
5466;DHT22;2755;50.728;7.108;2022-10-16T06:06:13;14.50;99.90
5466;DHT22;2755;50.728;7.108;2022-10-16T06:08:40;14.40;99.90
5466;DHT22;2755;50.728;7.108;2022-10-16T06:11:12;14.30;99.90
5466;DHT22;2755;50.728;7.108;2022-10-16T06:13:39;14.00;99.90
5466;DHT22;2755;50.728;7.108;2022-10-16T06:16:07;14.00;99.90
5466;DHT22;2755;50.728;7.108;2022-10-16T06:18:33;14.20;99.90
5466;DHT22;2755;50.728;7.108;2022-10-16T06:20:59;14.20;99.90
5466;DHT22;2755;50.728;7.108;2022-10-16T06:23:25;14.00;99.90
5466;DHT22;2755;50.728;7.108;2022-10-16T06:25:51;14.20;99.90
5466;DHT22;2755;50.728;7.108;2022-10-16T06:28:16;14.30;99.90
5466;DHT22;2755;50.728;7.108;2022-10-16T06:30:42;14.30;99.90
5466;DHT22;2755;50.728;7.108;2022-10-16T06:33:11;14.80;99.90
5466;DHT22;2755;50.728;7.108;2022-10-16T06:35:37;14.60;99.90
5466;DHT22;2755;50.728;7.108;2022-10-16T06:38:03;14.10;99.90
5466;DHT22;2755;50.728;7.108;2022-10-16T06:40:28;14.40;99.90
5466;DHT22;2755;50.728;7.108;2022-10-16T06:45:23;14.90;99.90
5466;DHT22;2755;50.728;7.108;2022-10-16T06:50:17;14.20;99.90
5466;DHT22;2755;50.728;7.108;2022-10-16T06:52:42;14.40;99.90
5466;DHT22;2755;50.728;7.108;2022-10-16T06:55:08;14.40;99.90
5466;DHT22;2755;50.728;7.108;2022-10-16T06:59:59;14.50;99.90
5466;DHT22;2755;50.728;7.108;2022-10-16T07:02:25;14.80;99.90
5466;DHT22;2755;50.728;7.108;2022-10-16T07:04:50;14.70;99.90
5466;DHT22;2755;50.728;7.108;2022-10-16T07:07:16;14.80;99.90
5466;DHT22;2755;50.728;7.108;2022-10-16T07:09:41;14.60;99.90
5466;DHT22;2755;50.728;7.108;2022-10-16T07:14:33;14.70;99.90
5466;DHT22;2755;50.728;7.108;2022-10-16T07:16:58;15.10;99.90
5466;DHT22;2755;50.728;7.108;2022-10-16T07:19:24;14.80;99.90
5466;DHT22;2755;50.728;7.108;2022-10-16T07:24:16;15.80;99.90
5466;DHT22;2755;50.728;7.108;2022-10-16T07:26:44;15.20;99.90
5466;DHT22;2755;50.728;7.108;2022-10-16T07:31:44;15.50;99.90
5466;DHT22;2755;50.728;7.108;2022-10-16T07:34:11;15.40;99.90
5466;DHT22;2755;50.728;7.108;2022-10-16T07:39:03;15.60;99.90
5466;DHT22;2755;50.728;7.108;2022-10-16T07:41:29;15.50;99.90
5466;DHT22;2755;50.728;7.108;2022-10-16T07:43:56;15.40;99.90
5466;DHT22;2755;50.728;7.108;2022-10-16T07:46:25;15.40;99.90
5466;DHT22;2755;50.728;7.108;2022-10-16T07:48:51;15.70;99.90
5466;DHT22;2755;50.728;7.108;2022-10-16T07:51:18;15.50;99.90
5466;DHT22;2755;50.728;7.108;2022-10-16T07:53:45;16.50;99.90
5466;DHT22;2755;50.728;7.108;2022-10-16T07:56:11;15.60;99.90
5466;DHT22;2755;50.728;7.108;2022-10-16T08:01:05;16.00;99.90
5466;DHT22;2755;50.728;7.108;2022-10-16T08:03:31;16.10;99.90
5466;DHT22;2755;50.728;7.108;2022-10-16T08:05:57;16.50;99.90
5466;DHT22;2755;50.728;7.108;2022-10-16T08:08:23;17.30;99.90
5466;DHT22;2755;50.728;7.108;2022-10-16T08:10:49;16.00;99.90
5466;DHT22;2755;50.728;7.108;2022-10-16T08:13:15;16.10;99.90
5466;DHT22;2755;50.728;7.108;2022-10-16T08:15:44;15.80;99.90
5466;DHT22;2755;50.728;7.108;2022-10-16T08:18:11;16.10;99.90
5466;DHT22;2755;50.728;7.108;2022-10-16T08:20:38;16.70;99.90
5466;DHT22;2755;50.728;7.108;2022-10-16T08:23:04;16.50;99.90
5466;DHT22;2755;50.728;7.108;2022-10-16T08:25:30;16.90;99.90
5466;DHT22;2755;50.728;7.108;2022-10-16T08:27:56;16.70;99.90
5466;DHT22;2755;50.728;7.108;2022-10-16T08:30:22;16.80;99.90
5466;DHT22;2755;50.728;7.108;2022-10-16T08:32:49;16.70;99.90
5466;DHT22;2755;50.728;7.108;2022-10-16T08:35:15;17.50;99.90
5466;DHT22;2755;50.728;7.108;2022-10-16T08:37:42;17.60;99.90
5466;DHT22;2755;50.728;7.108;2022-10-16T08:40:19;18.20;99.90
5466;DHT22;2755;50.728;7.108;2022-10-16T08:43:02;18.50;99.90
5466;DHT22;2755;50.728;7.108;2022-10-16T08:48:30;18.70;99.90
5466;DHT22;2755;50.728;7.108;2022-10-16T08:53:30;18.40;99.90
5466;DHT22;2755;50.728;7.108;2022-10-16T08:55:57;18.20;99.90
5466;DHT22;2755;50.728;7.108;2022-10-16T08:58:28;18.40;99.90
5466;DHT22;2755;50.728;7.108;2022-10-16T09:14:47;18.30;99.90
5466;DHT22;2755;50.728;7.108;2022-10-16T09:17:03;18.60;99.90
5466;DHT22;2755;50.728;7.108;2022-10-16T09:19:38;18.80;99.90
5466;DHT22;2755;50.728;7.108;2022-10-16T09:22:13;19.00;99.90
5466;DHT22;2755;50.728;7.108;2022-10-16T09:24:39;19.50;99.90
5466;DHT22;2755;50.728;7.108;2022-10-16T09:27:11;19.70;99.90
5466;DHT22;2755;50.728;7.108;2022-10-16T09:29:37;19.80;99.90
5466;DHT22;2755;50.728;7.108;2022-10-16T09:32:15;20.10;99.90
5466;DHT22;2755;50.728;7.108;2022-10-16T09:34:47;21.00;99.90
5466;DHT22;2755;50.728;7.108;2022-10-16T09:37:17;20.40;99.90
5466;DHT22;2755;50.728;7.108;2022-10-16T09:39:45;22.30;99.90
5466;DHT22;2755;50.728;7.108;2022-10-16T09:42:16;22.20;99.90
5466;DHT22;2755;50.728;7.108;2022-10-16T09:44:41;22.90;99.90
5466;DHT22;2755;50.728;7.108;2022-10-16T09:49:38;24.50;99.00
5466;DHT22;2755;50.728;7.108;2022-10-16T09:52:18;24.80;95.60
5466;DHT22;2755;50.728;7.108;2022-10-16T09:54:57;26.00;97.30
5466;DHT22;2755;50.728;7.108;2022-10-16T09:59:58;26.10;94.90
5466;DHT22;2755;50.728;7.108;2022-10-16T10:02:30;25.40;94.40
5466;DHT22;2755;50.728;7.108;2022-10-16T10:04:58;25.30;92.40
5466;DHT22;2755;50.728;7.108;2022-10-16T10:07:32;26.10;91.20
5466;DHT22;2755;50.728;7.108;2022-10-16T10:09:59;25.60;91.70
5466;DHT22;2755;50.728;7.108;2022-10-16T10:12:27;25.30;91.60
5466;DHT22;2755;50.728;7.108;2022-10-16T10:14:58;25.00;92.70
5466;DHT22;2755;50.728;7.108;2022-10-16T10:17:26;24.70;91.20
5466;DHT22;2755;50.728;7.108;2022-10-16T10:19:59;24.90;91.40
5466;DHT22;2755;50.728;7.108;2022-10-16T10:33:44;26.00;87.30
5466;DHT22;2755;50.728;7.108;2022-10-16T10:36:36;25.80;87.30
5466;DHT22;2755;50.728;7.108;2022-10-16T10:44:26;25.90;87.00
5466;DHT22;2755;50.728;7.108;2022-10-16T10:47:01;26.30;87.70
5466;DHT22;2755;50.728;7.108;2022-10-16T10:49:56;25.90;84.70
5466;DHT22;2755;50.728;7.108;2022-10-16T11:00:55;26.60;81.30
5466;DHT22;2755;50.728;7.108;2022-10-16T11:03:51;26.70;79.90
5466;DHT22;2755;50.728;7.108;2022-10-16T11:11:58;25.70;80.70
5466;DHT22;2755;50.728;7.108;2022-10-16T11:14:34;25.30;83.50
5466;DHT22;2755;50.728;7.108;2022-10-16T11:17:19;24.70;85.80
5466;DHT22;2755;50.728;7.108;2022-10-16T11:22:31;25.60;82.30
5466;DHT22;2755;50.728;7.108;2022-10-16T11:36:03;25.10;82.70
5466;DHT22;2755;50.728;7.108;2022-10-16T11:38:43;24.80;84.80
5466;DHT22;2755;50.728;7.108;2022-10-16T11:43:43;24.50;87.10
5466;DHT22;2755;50.728;7.108;2022-10-16T11:46:22;23.10;85.00
5466;DHT22;2755;50.728;7.108;2022-10-16T11:49:13;23.60;86.30
5466;DHT22;2755;50.728;7.108;2022-10-16T11:51:43;23.10;87.60
5466;DHT22;2755;50.728;7.108;2022-10-16T11:54:26;22.80;89.70
5466;DHT22;2755;50.728;7.108;2022-10-16T11:56:57;23.20;91.30
5466;DHT22;2755;50.728;7.108;2022-10-16T11:59:45;22.00;91.80
5466;DHT22;2755;50.728;7.108;2022-10-16T12:04:45;22.00;93.00
5466;DHT22;2755;50.728;7.108;2022-10-16T12:07:22;21.80;94.20
5466;DHT22;2755;50.728;7.108;2022-10-16T12:09:50;21.80;95.50
5466;DHT22;2755;50.728;7.108;2022-10-16T12:15:02;21.20;95.00
5466;DHT22;2755;50.728;7.108;2022-10-16T12:17:36;21.80;95.00
5466;DHT22;2755;50.728;7.108;2022-10-16T12:22:50;21.90;96.40
5466;DHT22;2755;50.728;7.108;2022-10-16T12:25:33;21.90;96.20
5466;DHT22;2755;50.728;7.108;2022-10-16T12:28:19;21.70;95.50
5466;DHT22;2755;50.728;7.108;2022-10-16T12:31:00;21.70;95.50
5466;DHT22;2755;50.728;7.108;2022-10-16T12:33:33;21.60;95.70
5466;DHT22;2755;50.728;7.108;2022-10-16T12:36:02;21.80;95.60
5466;DHT22;2755;50.728;7.108;2022-10-16T12:38:45;21.90;97.00
5466;DHT22;2755;50.728;7.108;2022-10-16T12:48:40;21.50;95.90
5466;DHT22;2755;50.728;7.108;2022-10-16T12:51:33;21.80;97.70
5466;DHT22;2755;50.728;7.108;2022-10-16T12:54:01;21.60;97.30
5466;DHT22;2755;50.728;7.108;2022-10-16T12:59:16;21.60;96.60
5466;DHT22;2755;50.728;7.108;2022-10-16T13:02:04;21.60;96.90
5466;DHT22;2755;50.728;7.108;2022-10-16T13:04:52;21.70;97.00
5466;DHT22;2755;50.728;7.108;2022-10-16T13:10:20;21.80;96.40
5466;DHT22;2755;50.728;7.108;2022-10-16T13:15:35;22.00;96.00
5466;DHT22;2755;50.728;7.108;2022-10-16T13:21:27;22.00;96.90
5466;DHT22;2755;50.728;7.108;2022-10-16T13:27:03;21.90;96.10
5466;DHT22;2755;50.728;7.108;2022-10-16T13:29:32;21.50;96.30
5466;DHT22;2755;50.728;7.108;2022-10-16T13:32:06;23.00;97.00
5466;DHT22;2755;50.728;7.108;2022-10-16T13:34:32;21.70;96.90
5466;DHT22;2755;50.728;7.108;2022-10-16T13:36:58;21.30;97.00
5466;DHT22;2755;50.728;7.108;2022-10-16T13:39:28;21.60;97.40
5466;DHT22;2755;50.728;7.108;2022-10-16T13:42:04;22.00;98.30
5466;DHT22;2755;50.728;7.108;2022-10-16T13:44:40;21.00;98.50
5466;DHT22;2755;50.728;7.108;2022-10-16T13:49:43;21.20;98.30
5466;DHT22;2755;50.728;7.108;2022-10-16T13:52:20;21.00;98.00
5466;DHT22;2755;50.728;7.108;2022-10-16T13:54:47;21.20;99.40
5466;DHT22;2755;50.728;7.108;2022-10-16T13:57:14;21.10;99.30
5466;DHT22;2755;50.728;7.108;2022-10-16T13:59:40;21.50;97.80
5466;DHT22;2755;50.728;7.108;2022-10-16T14:02:31;21.30;97.20
5466;DHT22;2755;50.728;7.108;2022-10-16T14:05:01;21.40;98.10
5466;DHT22;2755;50.728;7.108;2022-10-16T14:07:32;20.80;97.10
5466;DHT22;2755;50.728;7.108;2022-10-16T14:10:28;21.40;97.60
5466;DHT22;2755;50.728;7.108;2022-10-16T14:12:57;21.40;97.50
5466;DHT22;2755;50.728;7.108;2022-10-16T14:15:23;21.30;97.90
5466;DHT22;2755;50.728;7.108;2022-10-16T14:17:50;21.30;99.00
5466;DHT22;2755;50.728;7.108;2022-10-16T14:20:16;21.20;98.20
5466;DHT22;2755;50.728;7.108;2022-10-16T14:22:43;21.10;98.40
5466;DHT22;2755;50.728;7.108;2022-10-16T14:28:01;21.60;98.80
5466;DHT22;2755;50.728;7.108;2022-10-16T14:30:27;21.30;98.70
5466;DHT22;2755;50.728;7.108;2022-10-16T14:32:56;21.00;98.60
5466;DHT22;2755;50.728;7.108;2022-10-16T14:35:36;20.90;99.30
5466;DHT22;2755;50.728;7.108;2022-10-16T14:38:04;20.90;99.90
5466;DHT22;2755;50.728;7.108;2022-10-16T14:40:32;20.50;99.90
5466;DHT22;2755;50.728;7.108;2022-10-16T14:42:58;20.40;99.90
5466;DHT22;2755;50.728;7.108;2022-10-16T14:45:30;20.70;99.90
5466;DHT22;2755;50.728;7.108;2022-10-16T14:48:00;20.40;99.90
5466;DHT22;2755;50.728;7.108;2022-10-16T14:50:26;19.80;99.90
5466;DHT22;2755;50.728;7.108;2022-10-16T14:52:52;21.10;99.90
5466;DHT22;2755;50.728;7.108;2022-10-16T14:55:19;20.70;99.90
5466;DHT22;2755;50.728;7.108;2022-10-16T14:57:45;20.30;99.90
5466;DHT22;2755;50.728;7.108;2022-10-16T15:00:20;20.40;99.90
5466;DHT22;2755;50.728;7.108;2022-10-16T15:02:48;20.40;99.90
5466;DHT22;2755;50.728;7.108;2022-10-16T15:07:43;20.20;99.90
5466;DHT22;2755;50.728;7.108;2022-10-16T15:10:09;20.10;99.90
5466;DHT22;2755;50.728;7.108;2022-10-16T15:12:39;20.20;99.90
5466;DHT22;2755;50.728;7.108;2022-10-16T15:15:38;20.20;99.90
5466;DHT22;2755;50.728;7.108;2022-10-16T15:18:05;19.70;99.90
5466;DHT22;2755;50.728;7.108;2022-10-16T15:20:33;20.60;99.90
5466;DHT22;2755;50.728;7.108;2022-10-16T15:23:14;20.20;99.90
5466;DHT22;2755;50.728;7.108;2022-10-16T15:25:46;19.90;99.90
5466;DHT22;2755;50.728;7.108;2022-10-16T15:28:14;19.80;99.90
5466;DHT22;2755;50.728;7.108;2022-10-16T15:30:40;19.90;99.90
5466;DHT22;2755;50.728;7.108;2022-10-16T15:33:12;19.70;99.90
5466;DHT22;2755;50.728;7.108;2022-10-16T15:35:38;19.40;99.90
5466;DHT22;2755;50.728;7.108;2022-10-16T15:38:04;18.30;99.90
5466;DHT22;2755;50.728;7.108;2022-10-16T15:42:55;19.00;99.90
5466;DHT22;2755;50.728;7.108;2022-10-16T15:45:21;19.60;99.90
5466;DHT22;2755;50.728;7.108;2022-10-16T15:50:15;19.60;99.90
5466;DHT22;2755;50.728;7.108;2022-10-16T15:52:41;19.60;99.90
5466;DHT22;2755;50.728;7.108;2022-10-16T15:55:11;18.80;99.90
5466;DHT22;2755;50.728;7.108;2022-10-16T16:00:14;19.40;99.90
5466;DHT22;2755;50.728;7.108;2022-10-16T16:02:41;19.10;99.90
5466;DHT22;2755;50.728;7.108;2022-10-16T16:05:09;19.20;99.90
5466;DHT22;2755;50.728;7.108;2022-10-16T16:07:36;17.60;99.90
5466;DHT22;2755;50.728;7.108;2022-10-16T16:10:05;18.80;99.90
5466;DHT22;2755;50.728;7.108;2022-10-16T16:12:31;18.80;99.90
5466;DHT22;2755;50.728;7.108;2022-10-16T16:22:15;18.00;99.90
5466;DHT22;2755;50.728;7.108;2022-10-16T16:27:07;18.60;99.90
5466;DHT22;2755;50.728;7.108;2022-10-16T16:32:00;19.10;99.90
5466;DHT22;2755;50.728;7.108;2022-10-16T16:34:27;18.60;99.90
5466;DHT22;2755;50.728;7.108;2022-10-16T16:36:53;18.50;99.90
5466;DHT22;2755;50.728;7.108;2022-10-16T16:39:19;18.80;99.90
5466;DHT22;2755;50.728;7.108;2022-10-16T16:44:11;18.60;99.90
5466;DHT22;2755;50.728;7.108;2022-10-16T16:51:31;18.50;99.90
5466;DHT22;2755;50.728;7.108;2022-10-16T16:53:57;18.50;99.90
5466;DHT22;2755;50.728;7.108;2022-10-16T16:56:24;18.10;99.90
5466;DHT22;2755;50.728;7.108;2022-10-16T16:58:51;18.30;99.90
5466;DHT22;2755;50.728;7.108;2022-10-16T17:03:44;18.20;99.90
5466;DHT22;2755;50.728;7.108;2022-10-16T17:06:11;18.20;99.90
5466;DHT22;2755;50.728;7.108;2022-10-16T17:08:38;18.10;99.90
5466;DHT22;2755;50.728;7.108;2022-10-16T17:11:04;18.10;99.90
5466;DHT22;2755;50.728;7.108;2022-10-16T17:13:32;17.90;99.90
5466;DHT22;2755;50.728;7.108;2022-10-16T17:16:03;18.80;99.90
5466;DHT22;2755;50.728;7.108;2022-10-16T17:18:29;18.10;99.90
5466;DHT22;2755;50.728;7.108;2022-10-16T17:20:59;17.90;99.90
5466;DHT22;2755;50.728;7.108;2022-10-16T17:23:25;18.00;99.90
5466;DHT22;2755;50.728;7.108;2022-10-16T17:25:51;17.90;99.90
5466;DHT22;2755;50.728;7.108;2022-10-16T17:28:16;18.40;99.90
5466;DHT22;2755;50.728;7.108;2022-10-16T17:30:43;18.30;99.90
5466;DHT22;2755;50.728;7.108;2022-10-16T17:33:10;18.70;99.90
5466;DHT22;2755;50.728;7.108;2022-10-16T17:35:44;17.80;99.90
5466;DHT22;2755;50.728;7.108;2022-10-16T17:38:11;18.00;99.90
5466;DHT22;2755;50.728;7.108;2022-10-16T17:40:37;18.00;99.90
5466;DHT22;2755;50.728;7.108;2022-10-16T17:43:03;17.80;99.90
5466;DHT22;2755;50.728;7.108;2022-10-16T17:45:29;18.50;99.90
5466;DHT22;2755;50.728;7.108;2022-10-16T17:50:24;18.00;99.90
5466;DHT22;2755;50.728;7.108;2022-10-16T17:55:15;17.30;99.90
5466;DHT22;2755;50.728;7.108;2022-10-16T18:00:07;17.60;99.90
5466;DHT22;2755;50.728;7.108;2022-10-16T18:04:59;17.70;99.90
5466;DHT22;2755;50.728;7.108;2022-10-16T18:07:25;17.70;99.90
5466;DHT22;2755;50.728;7.108;2022-10-16T18:14:43;18.00;99.90
5466;DHT22;2755;50.728;7.108;2022-10-16T18:17:09;17.50;99.90
5466;DHT22;2755;50.728;7.108;2022-10-16T18:19:34;17.80;99.90
5466;DHT22;2755;50.728;7.108;2022-10-16T18:22:00;17.90;99.90
5466;DHT22;2755;50.728;7.108;2022-10-16T18:26:53;17.10;99.90
5466;DHT22;2755;50.728;7.108;2022-10-16T18:29:24;17.60;99.90
5466;DHT22;2755;50.728;7.108;2022-10-16T18:31:51;17.60;99.90
5466;DHT22;2755;50.728;7.108;2022-10-16T18:34:16;17.60;99.90
5466;DHT22;2755;50.728;7.108;2022-10-16T18:36:42;17.50;99.90
5466;DHT22;2755;50.728;7.108;2022-10-16T18:39:09;17.10;99.90
5466;DHT22;2755;50.728;7.108;2022-10-16T18:41:41;17.30;99.90
5466;DHT22;2755;50.728;7.108;2022-10-16T18:44:09;17.10;99.90
5466;DHT22;2755;50.728;7.108;2022-10-16T18:46:35;17.30;99.90
5466;DHT22;2755;50.728;7.108;2022-10-16T18:49:02;17.40;99.90
5466;DHT22;2755;50.728;7.108;2022-10-16T18:51:35;17.20;99.90
5466;DHT22;2755;50.728;7.108;2022-10-16T18:54:06;17.60;99.90
5466;DHT22;2755;50.728;7.108;2022-10-16T18:56:32;17.20;99.90
5466;DHT22;2755;50.728;7.108;2022-10-16T18:58:59;17.20;99.90
5466;DHT22;2755;50.728;7.108;2022-10-16T19:01:28;17.20;99.90
5466;DHT22;2755;50.728;7.108;2022-10-16T19:04:03;17.20;99.90
5466;DHT22;2755;50.728;7.108;2022-10-16T19:06:32;16.90;99.90
5466;DHT22;2755;50.728;7.108;2022-10-16T19:08:58;16.90;99.90
5466;DHT22;2755;50.728;7.108;2022-10-16T19:11:24;16.80;99.90
5466;DHT22;2755;50.728;7.108;2022-10-16T19:13:51;17.30;99.90
5466;DHT22;2755;50.728;7.108;2022-10-16T19:16:20;16.90;99.90
5466;DHT22;2755;50.728;7.108;2022-10-16T19:18:50;16.90;99.90
5466;DHT22;2755;50.728;7.108;2022-10-16T19:21:17;17.00;99.90
5466;DHT22;2755;50.728;7.108;2022-10-16T19:23:43;17.00;99.90
5466;DHT22;2755;50.728;7.108;2022-10-16T19:26:12;17.20;99.90
5466;DHT22;2755;50.728;7.108;2022-10-16T19:28:38;16.80;99.90
5466;DHT22;2755;50.728;7.108;2022-10-16T19:31:11;17.30;99.90
5466;DHT22;2755;50.728;7.108;2022-10-16T19:33:37;16.90;99.90
5466;DHT22;2755;50.728;7.108;2022-10-16T19:38:40;16.90;99.90
5466;DHT22;2755;50.728;7.108;2022-10-16T19:41:16;16.90;99.90
5466;DHT22;2755;50.728;7.108;2022-10-16T19:43:43;16.70;99.90
5466;DHT22;2755;50.728;7.108;2022-10-16T19:46:13;16.70;99.90
5466;DHT22;2755;50.728;7.108;2022-10-16T19:48:39;16.40;99.90
5466;DHT22;2755;50.728;7.108;2022-10-16T19:51:06;16.50;99.90
5466;DHT22;2755;50.728;7.108;2022-10-16T19:53:34;16.80;99.90
5466;DHT22;2755;50.728;7.108;2022-10-16T19:58:26;16.50;99.90
5466;DHT22;2755;50.728;7.108;2022-10-16T20:00:52;16.50;99.90
5466;DHT22;2755;50.728;7.108;2022-10-16T20:03:19;16.70;99.90
5466;DHT22;2755;50.728;7.108;2022-10-16T20:08:22;16.80;99.90
5466;DHT22;2755;50.728;7.108;2022-10-16T20:10:53;16.40;99.90
5466;DHT22;2755;50.728;7.108;2022-10-16T20:13:20;16.30;99.90
5466;DHT22;2755;50.728;7.108;2022-10-16T20:15:46;16.30;99.90